sensor_id;sensor_type;location;lat;lon;timestamp;P1;durP1;ratioP1;P2;durP2;ratioP2
22829;SDS011;11581;51.250;6.778;2023-03-01T00:02:15;7.45;;;3.33;;
22829;SDS011;11581;51.250;6.778;2023-03-01T00:04:43;5.95;;;3.05;;
22829;SDS011;11581;51.250;6.778;2023-03-01T00:07:09;7.90;;;3.38;;
22829;SDS011;11581;51.250;6.778;2023-03-01T00:09:36;7.63;;;3.92;;
22829;SDS011;11581;51.250;6.778;2023-03-01T00:12:05;6.90;;;4.05;;
22829;SDS011;11581;51.250;6.778;2023-03-01T00:14:32;7.35;;;3.67;;
22829;SDS011;11581;51.250;6.778;2023-03-01T00:16:59;6.10;;;3.67;;
22829;SDS011;11581;51.250;6.778;2023-03-01T00:19:27;7.45;;;3.92;;
22829;SDS011;11581;51.250;6.778;2023-03-01T00:21:55;7.15;;;3.67;;
22829;SDS011;11581;51.250;6.778;2023-03-01T00:24:21;4.95;;;3.63;;
22829;SDS011;11581;51.250;6.778;2023-03-01T00:26:48;8.73;;;4.03;;
22829;SDS011;11581;51.250;6.778;2023-03-01T00:29:19;7.80;;;4.00;;
22829;SDS011;11581;51.250;6.778;2023-03-01T00:31:45;6.05;;;3.55;;
22829;SDS011;11581;51.250;6.778;2023-03-01T00:34:12;7.85;;;3.92;;
22829;SDS011;11581;51.250;6.778;2023-03-01T00:36:38;6.97;;;3.60;;
22829;SDS011;11581;51.250;6.778;2023-03-01T00:39:07;6.70;;;3.83;;
22829;SDS011;11581;51.250;6.778;2023-03-01T00:41:38;9.05;;;4.35;;
22829;SDS011;11581;51.250;6.778;2023-03-01T00:44:05;7.60;;;3.95;;
22829;SDS011;11581;51.250;6.778;2023-03-01T00:46:31;6.53;;;3.88;;
22829;SDS011;11581;51.250;6.778;2023-03-01T00:48:58;7.50;;;4.13;;
22829;SDS011;11581;51.250;6.778;2023-03-01T00:51:27;7.03;;;3.95;;
22829;SDS011;11581;51.250;6.778;2023-03-01T00:53:56;6.47;;;3.95;;
22829;SDS011;11581;51.250;6.778;2023-03-01T00:56:25;7.68;;;4.40;;
22829;SDS011;11581;51.250;6.778;2023-03-01T00:58:52;10.50;;;4.40;;
22829;SDS011;11581;51.250;6.778;2023-03-01T01:01:19;8.52;;;4.70;;
22829;SDS011;11581;51.250;6.778;2023-03-01T01:03:48;7.72;;;4.13;;
22829;SDS011;11581;51.250;6.778;2023-03-01T01:06:17;7.80;;;4.28;;
22829;SDS011;11581;51.250;6.778;2023-03-01T01:08:45;8.27;;;4.25;;
22829;SDS011;11581;51.250;6.778;2023-03-01T01:11:12;6.30;;;3.95;;
22829;SDS011;11581;51.250;6.778;2023-03-01T01:13:41;7.05;;;3.97;;
22829;SDS011;11581;51.250;6.778;2023-03-01T01:16:07;8.82;;;4.35;;
22829;SDS011;11581;51.250;6.778;2023-03-01T01:18:34;8.25;;;4.40;;
22829;SDS011;11581;51.250;6.778;2023-03-01T01:21:05;6.20;;;3.75;;
22829;SDS011;11581;51.250;6.778;2023-03-01T01:23:33;5.40;;;3.60;;
22829;SDS011;11581;51.250;6.778;2023-03-01T01:26:03;5.60;;;3.83;;
22829;SDS011;11581;51.250;6.778;2023-03-01T01:28:30;5.88;;;3.42;;
22829;SDS011;11581;51.250;6.778;2023-03-01T01:30:58;7.57;;;4.60;;
22829;SDS011;11581;51.250;6.778;2023-03-01T01:33:25;8.82;;;4.13;;
22829;SDS011;11581;51.250;6.778;2023-03-01T01:35:52;7.25;;;3.92;;
22829;SDS011;11581;51.250;6.778;2023-03-01T01:38:19;6.07;;;3.83;;
22829;SDS011;11581;51.250;6.778;2023-03-01T01:40:47;6.72;;;3.97;;
22829;SDS011;11581;51.250;6.778;2023-03-01T01:43:16;7.43;;;4.10;;
22829;SDS011;11581;51.250;6.778;2023-03-01T01:45:46;6.15;;;3.95;;
22829;SDS011;11581;51.250;6.778;2023-03-01T01:48:14;5.80;;;3.92;;
22829;SDS011;11581;51.250;6.778;2023-03-01T01:50:44;7.22;;;4.50;;
22829;SDS011;11581;51.250;6.778;2023-03-01T01:53:14;8.13;;;3.92;;
22829;SDS011;11581;51.250;6.778;2023-03-01T01:55:44;7.90;;;4.78;;
22829;SDS011;11581;51.250;6.778;2023-03-01T01:58:15;7.55;;;3.92;;
22829;SDS011;11581;51.250;6.778;2023-03-01T02:00:44;6.45;;;4.28;;
22829;SDS011;11581;51.250;6.778;2023-03-01T02:03:11;10.35;;;4.20;;
22829;SDS011;11581;51.250;6.778;2023-03-01T02:05:45;6.50;;;4.50;;
22829;SDS011;11581;51.250;6.778;2023-03-01T02:08:18;5.65;;;3.85;;
22829;SDS011;11581;51.250;6.778;2023-03-01T02:10:47;6.15;;;3.88;;
22829;SDS011;11581;51.250;6.778;2023-03-01T02:13:15;10.48;;;4.30;;
22829;SDS011;11581;51.250;6.778;2023-03-01T02:15:42;9.05;;;3.95;;
22829;SDS011;11581;51.250;6.778;2023-03-01T02:18:10;9.73;;;4.50;;
22829;SDS011;11581;51.250;6.778;2023-03-01T02:20:40;7.78;;;4.25;;
22829;SDS011;11581;51.250;6.778;2023-03-01T02:23:17;8.27;;;4.22;;
22829;SDS011;11581;51.250;6.778;2023-03-01T02:25:47;14.75;;;5.15;;
22829;SDS011;11581;51.250;6.778;2023-03-01T02:31:02;9.80;;;4.40;;
22829;SDS011;11581;51.250;6.778;2023-03-01T02:33:48;6.88;;;4.65;;
22829;SDS011;11581;51.250;6.778;2023-03-01T02:36:17;9.32;;;4.57;;
22829;SDS011;11581;51.250;6.778;2023-03-01T02:38:45;7.15;;;4.40;;
22829;SDS011;11581;51.250;6.778;2023-03-01T02:41:15;9.25;;;4.68;;
22829;SDS011;11581;51.250;6.778;2023-03-01T02:43:45;8.98;;;5.00;;
22829;SDS011;11581;51.250;6.778;2023-03-01T02:46:16;8.32;;;4.22;;
22829;SDS011;11581;51.250;6.778;2023-03-01T02:48:45;8.60;;;4.30;;
22829;SDS011;11581;51.250;6.778;2023-03-01T02:54:10;6.57;;;4.20;;
22829;SDS011;11581;51.250;6.778;2023-03-01T02:59:09;10.10;;;4.45;;
22829;SDS011;11581;51.250;6.778;2023-03-01T03:01:37;7.60;;;4.43;;
22829;SDS011;11581;51.250;6.778;2023-03-01T03:04:06;7.85;;;4.65;;
22829;SDS011;11581;51.250;6.778;2023-03-01T03:06:35;9.55;;;4.47;;
22829;SDS011;11581;51.250;6.778;2023-03-01T03:09:02;8.13;;;5.05;;
22829;SDS011;11581;51.250;6.778;2023-03-01T03:11:29;9.10;;;5.10;;
22829;SDS011;11581;51.250;6.778;2023-03-01T03:13:57;6.00;;;4.15;;
22829;SDS011;11581;51.250;6.778;2023-03-01T03:16:25;7.15;;;4.43;;
22829;SDS011;11581;51.250;6.778;2023-03-01T03:18:52;8.02;;;4.75;;
22829;SDS011;11581;51.250;6.778;2023-03-01T03:21:18;9.65;;;4.70;;
22829;SDS011;11581;51.250;6.778;2023-03-01T03:23:45;9.57;;;4.97;;
22829;SDS011;11581;51.250;6.778;2023-03-01T03:26:11;13.18;;;4.43;;
22829;SDS011;11581;51.250;6.778;2023-03-01T03:28:40;10.68;;;4.85;;
22829;SDS011;11581;51.250;6.778;2023-03-01T03:31:06;11.38;;;5.22;;
22829;SDS011;11581;51.250;6.778;2023-03-01T03:33:35;10.38;;;5.00;;
22829;SDS011;11581;51.250;6.778;2023-03-01T03:36:02;10.20;;;5.10;;
22829;SDS011;11581;51.250;6.778;2023-03-01T03:38:29;8.07;;;4.47;;
22829;SDS011;11581;51.250;6.778;2023-03-01T03:41:00;8.85;;;5.20;;
22829;SDS011;11581;51.250;6.778;2023-03-01T03:43:28;8.60;;;4.90;;
22829;SDS011;11581;51.250;6.778;2023-03-01T03:45:56;7.80;;;4.45;;
22829;SDS011;11581;51.250;6.778;2023-03-01T03:48:23;8.77;;;4.75;;
22829;SDS011;11581;51.250;6.778;2023-03-01T03:50:52;8.73;;;5.28;;
22829;SDS011;11581;51.250;6.778;2023-03-01T03:53:20;8.80;;;5.13;;
22829;SDS011;11581;51.250;6.778;2023-03-01T03:55:49;8.18;;;4.72;;
22829;SDS011;11581;51.250;6.778;2023-03-01T03:58:16;8.77;;;4.75;;
22829;SDS011;11581;51.250;6.778;2023-03-01T04:00:44;8.32;;;4.85;;
22829;SDS011;11581;51.250;6.778;2023-03-01T04:03:14;8.75;;;4.97;;
22829;SDS011;11581;51.250;6.778;2023-03-01T04:05:43;8.27;;;5.65;;
22829;SDS011;11581;51.250;6.778;2023-03-01T04:08:12;6.95;;;4.82;;
22829;SDS011;11581;51.250;6.778;2023-03-01T04:10:39;8.07;;;4.93;;
22829;SDS011;11581;51.250;6.778;2023-03-01T04:13:09;7.53;;;5.40;;
22829;SDS011;11581;51.250;6.778;2023-03-01T04:15:38;8.88;;;5.60;;
22829;SDS011;11581;51.250;6.778;2023-03-01T04:18:05;9.18;;;5.53;;
22829;SDS011;11581;51.250;6.778;2023-03-01T04:20:33;8.68;;;5.43;;
22829;SDS011;11581;51.250;6.778;2023-03-01T04:23:02;7.32;;;4.57;;
22829;SDS011;11581;51.250;6.778;2023-03-01T04:25:38;8.43;;;5.15;;
22829;SDS011;11581;51.250;6.778;2023-03-01T04:28:05;8.18;;;5.28;;
22829;SDS011;11581;51.250;6.778;2023-03-01T04:30:32;10.32;;;5.70;;
22829;SDS011;11581;51.250;6.778;2023-03-01T04:33:01;7.40;;;4.85;;
22829;SDS011;11581;51.250;6.778;2023-03-01T04:35:29;7.38;;;4.53;;
22829;SDS011;11581;51.250;6.778;2023-03-01T04:37:56;8.43;;;4.68;;
22829;SDS011;11581;51.250;6.778;2023-03-01T04:40:23;8.27;;;5.47;;
22829;SDS011;11581;51.250;6.778;2023-03-01T04:42:51;8.90;;;5.10;;
22829;SDS011;11581;51.250;6.778;2023-03-01T04:45:18;8.73;;;4.80;;
22829;SDS011;11581;51.250;6.778;2023-03-01T04:47:45;6.95;;;4.78;;
22829;SDS011;11581;51.250;6.778;2023-03-01T04:50:13;11.70;;;5.88;;
22829;SDS011;11581;51.250;6.778;2023-03-01T04:52:41;8.52;;;4.75;;
22829;SDS011;11581;51.250;6.778;2023-03-01T04:55:09;7.75;;;4.82;;
22829;SDS011;11581;51.250;6.778;2023-03-01T04:57:36;9.27;;;5.32;;
22829;SDS011;11581;51.250;6.778;2023-03-01T05:00:05;8.10;;;4.47;;
22829;SDS011;11581;51.250;6.778;2023-03-01T05:02:45;8.93;;;5.20;;
22829;SDS011;11581;51.250;6.778;2023-03-01T05:05:14;9.93;;;5.03;;
22829;SDS011;11581;51.250;6.778;2023-03-01T05:07:41;9.85;;;6.05;;
22829;SDS011;11581;51.250;6.778;2023-03-01T05:10:08;9.10;;;5.50;;
22829;SDS011;11581;51.250;6.778;2023-03-01T05:12:35;6.53;;;4.28;;
22829;SDS011;11581;51.250;6.778;2023-03-01T05:15:02;8.18;;;5.28;;
22829;SDS011;11581;51.250;6.778;2023-03-01T05:17:32;7.90;;;5.53;;
22829;SDS011;11581;51.250;6.778;2023-03-01T05:19:59;9.68;;;5.82;;
22829;SDS011;11581;51.250;6.778;2023-03-01T05:22:26;8.85;;;5.47;;
22829;SDS011;11581;51.250;6.778;2023-03-01T05:24:52;10.07;;;5.55;;
22829;SDS011;11581;51.250;6.778;2023-03-01T05:27:20;8.98;;;5.22;;
22829;SDS011;11581;51.250;6.778;2023-03-01T05:29:47;8.65;;;5.63;;
22829;SDS011;11581;51.250;6.778;2023-03-01T05:32:15;9.85;;;5.65;;
22829;SDS011;11581;51.250;6.778;2023-03-01T05:34:42;9.77;;;5.80;;
22829;SDS011;11581;51.250;6.778;2023-03-01T05:37:09;11.63;;;6.07;;
22829;SDS011;11581;51.250;6.778;2023-03-01T05:39:35;8.43;;;5.43;;
22829;SDS011;11581;51.250;6.778;2023-03-01T05:42:02;10.73;;;5.35;;
22829;SDS011;11581;51.250;6.778;2023-03-01T05:44:29;9.00;;;5.82;;
22829;SDS011;11581;51.250;6.778;2023-03-01T05:46:56;10.07;;;6.38;;
22829;SDS011;11581;51.250;6.778;2023-03-01T05:49:24;11.40;;;5.88;;
22829;SDS011;11581;51.250;6.778;2023-03-01T05:51:51;12.80;;;6.07;;
22829;SDS011;11581;51.250;6.778;2023-03-01T05:54:20;11.48;;;6.28;;
22829;SDS011;11581;51.250;6.778;2023-03-01T05:56:47;7.28;;;5.30;;
22829;SDS011;11581;51.250;6.778;2023-03-01T05:59:14;7.95;;;5.60;;
22829;SDS011;11581;51.250;6.778;2023-03-01T06:01:41;8.38;;;5.43;;
22829;SDS011;11581;51.250;6.778;2023-03-01T06:04:08;8.32;;;4.88;;
22829;SDS011;11581;51.250;6.778;2023-03-01T06:06:36;9.98;;;6.03;;
22829;SDS011;11581;51.250;6.778;2023-03-01T06:09:04;13.02;;;5.50;;
22829;SDS011;11581;51.250;6.778;2023-03-01T06:11:33;9.98;;;5.95;;
22829;SDS011;11581;51.250;6.778;2023-03-01T06:14:00;15.95;;;5.80;;
22829;SDS011;11581;51.250;6.778;2023-03-01T06:16:27;9.48;;;5.65;;
22829;SDS011;11581;51.250;6.778;2023-03-01T06:18:53;9.55;;;5.82;;
22829;SDS011;11581;51.250;6.778;2023-03-01T06:21:20;8.25;;;5.43;;
22829;SDS011;11581;51.250;6.778;2023-03-01T06:23:48;9.75;;;5.68;;
22829;SDS011;11581;51.250;6.778;2023-03-01T06:26:14;11.60;;;5.90;;
22829;SDS011;11581;51.250;6.778;2023-03-01T06:28:41;10.23;;;6.32;;
22829;SDS011;11581;51.250;6.778;2023-03-01T06:31:11;13.15;;;5.80;;
22829;SDS011;11581;51.250;6.778;2023-03-01T06:33:37;11.30;;;5.88;;
22829;SDS011;11581;51.250;6.778;2023-03-01T06:36:04;11.63;;;6.55;;
22829;SDS011;11581;51.250;6.778;2023-03-01T06:38:31;9.65;;;5.93;;
22829;SDS011;11581;51.250;6.778;2023-03-01T06:40:59;10.27;;;6.00;;
22829;SDS011;11581;51.250;6.778;2023-03-01T06:43:26;8.43;;;5.63;;
22829;SDS011;11581;51.250;6.778;2023-03-01T06:45:53;9.48;;;5.80;;
22829;SDS011;11581;51.250;6.778;2023-03-01T06:48:20;8.10;;;5.28;;
22829;SDS011;11581;51.250;6.778;2023-03-01T06:50:46;11.98;;;5.90;;
22829;SDS011;11581;51.250;6.778;2023-03-01T06:53:13;7.43;;;5.45;;
22829;SDS011;11581;51.250;6.778;2023-03-01T06:55:39;7.63;;;4.95;;
22829;SDS011;11581;51.250;6.778;2023-03-01T06:58:08;7.15;;;4.93;;
22829;SDS011;11581;51.250;6.778;2023-03-01T07:00:35;7.55;;;5.05;;
22829;SDS011;11581;51.250;6.778;2023-03-01T07:03:01;8.40;;;5.07;;
22829;SDS011;11581;51.250;6.778;2023-03-01T07:05:28;7.43;;;5.05;;
22829;SDS011;11581;51.250;6.778;2023-03-01T07:07:55;7.30;;;5.22;;
22829;SDS011;11581;51.250;6.778;2023-03-01T07:10:22;9.57;;;5.40;;
22829;SDS011;11581;51.250;6.778;2023-03-01T07:12:48;8.15;;;5.40;;
22829;SDS011;11581;51.250;6.778;2023-03-01T07:15:16;7.18;;;4.82;;
22829;SDS011;11581;51.250;6.778;2023-03-01T07:17:43;7.50;;;5.15;;
22829;SDS011;11581;51.250;6.778;2023-03-01T07:20:12;6.85;;;4.95;;
22829;SDS011;11581;51.250;6.778;2023-03-01T07:22:39;7.88;;;4.88;;
22829;SDS011;11581;51.250;6.778;2023-03-01T07:25:07;7.63;;;5.15;;
22829;SDS011;11581;51.250;6.778;2023-03-01T07:27:34;8.60;;;4.75;;
22829;SDS011;11581;51.250;6.778;2023-03-01T07:30:01;8.43;;;5.18;;
22829;SDS011;11581;51.250;6.778;2023-03-01T07:32:29;9.48;;;5.20;;
22829;SDS011;11581;51.250;6.778;2023-03-01T07:34:56;8.45;;;5.03;;
22829;SDS011;11581;51.250;6.778;2023-03-01T07:37:22;7.95;;;5.38;;
22829;SDS011;11581;51.250;6.778;2023-03-01T07:39:49;8.18;;;4.60;;
22829;SDS011;11581;51.250;6.778;2023-03-01T07:42:16;7.35;;;4.60;;
22829;SDS011;11581;51.250;6.778;2023-03-01T07:44:42;9.75;;;5.28;;
22829;SDS011;11581;51.250;6.778;2023-03-01T07:47:09;7.28;;;4.80;;
22829;SDS011;11581;51.250;6.778;2023-03-01T07:49:37;6.05;;;4.63;;
22829;SDS011;11581;51.250;6.778;2023-03-01T07:52:03;7.22;;;4.70;;
22829;SDS011;11581;51.250;6.778;2023-03-01T07:54:30;8.38;;;4.93;;
22829;SDS011;11581;51.250;6.778;2023-03-01T07:56:57;7.40;;;4.68;;
22829;SDS011;11581;51.250;6.778;2023-03-01T07:59:23;8.50;;;5.00;;
22829;SDS011;11581;51.250;6.778;2023-03-01T08:01:54;8.85;;;4.53;;
22829;SDS011;11581;51.250;6.778;2023-03-01T08:04:20;6.88;;;4.82;;
22829;SDS011;11581;51.250;6.778;2023-03-01T08:06:49;8.63;;;4.85;;
22829;SDS011;11581;51.250;6.778;2023-03-01T08:09:16;6.38;;;3.90;;
22829;SDS011;11581;51.250;6.778;2023-03-01T08:11:42;9.73;;;4.82;;
22829;SDS011;11581;51.250;6.778;2023-03-01T08:14:09;6.78;;;4.47;;
22829;SDS011;11581;51.250;6.778;2023-03-01T08:16:36;6.72;;;4.22;;
22829;SDS011;11581;51.250;6.778;2023-03-01T08:19:03;7.72;;;4.70;;
22829;SDS011;11581;51.250;6.778;2023-03-01T08:21:30;6.38;;;4.68;;
22829;SDS011;11581;51.250;6.778;2023-03-01T08:24:01;8.65;;;4.47;;
22829;SDS011;11581;51.250;6.778;2023-03-01T08:26:27;8.02;;;4.45;;
22829;SDS011;11581;51.250;6.778;2023-03-01T08:28:54;12.50;;;4.32;;
22829;SDS011;11581;51.250;6.778;2023-03-01T08:31:22;6.30;;;4.40;;
22829;SDS011;11581;51.250;6.778;2023-03-01T08:33:52;7.07;;;4.57;;
22829;SDS011;11581;51.250;6.778;2023-03-01T08:36:21;8.20;;;4.53;;
22829;SDS011;11581;51.250;6.778;2023-03-01T08:38:48;6.40;;;4.40;;
22829;SDS011;11581;51.250;6.778;2023-03-01T08:41:16;9.52;;;4.75;;
22829;SDS011;11581;51.250;6.778;2023-03-01T08:43:43;8.43;;;5.25;;
22829;SDS011;11581;51.250;6.778;2023-03-01T08:46:10;7.28;;;4.97;;
22829;SDS011;11581;51.250;6.778;2023-03-01T08:48:37;6.35;;;4.53;;
22829;SDS011;11581;51.250;6.778;2023-03-01T08:51:07;8.80;;;5.07;;
22829;SDS011;11581;51.250;6.778;2023-03-01T08:53:34;7.90;;;4.38;;
22829;SDS011;11581;51.250;6.778;2023-03-01T08:56:01;11.05;;;4.80;;
22829;SDS011;11581;51.250;6.778;2023-03-01T08:58:30;6.65;;;4.72;;
22829;SDS011;11581;51.250;6.778;2023-03-01T09:00:56;6.88;;;4.30;;
22829;SDS011;11581;51.250;6.778;2023-03-01T09:03:23;6.72;;;4.47;;
22829;SDS011;11581;51.250;6.778;2023-03-01T09:05:50;7.13;;;4.43;;
22829;SDS011;11581;51.250;6.778;2023-03-01T09:08:17;7.20;;;4.45;;
22829;SDS011;11581;51.250;6.778;2023-03-01T09:10:43;6.55;;;4.22;;
22829;SDS011;11581;51.250;6.778;2023-03-01T09:13:10;7.28;;;4.85;;
22829;SDS011;11581;51.250;6.778;2023-03-01T09:15:38;6.25;;;4.40;;
22829;SDS011;11581;51.250;6.778;2023-03-01T09:18:05;7.18;;;4.82;;
22829;SDS011;11581;51.250;6.778;2023-03-01T09:20:32;11.38;;;5.10;;
22829;SDS011;11581;51.250;6.778;2023-03-01T09:22:58;7.30;;;4.15;;
22829;SDS011;11581;51.250;6.778;2023-03-01T09:25:25;7.07;;;4.40;;
22829;SDS011;11581;51.250;6.778;2023-03-01T09:27:52;7.50;;;5.10;;
22829;SDS011;11581;51.250;6.778;2023-03-01T09:30:19;7.40;;;4.45;;
22829;SDS011;11581;51.250;6.778;2023-03-01T09:32:48;8.60;;;4.57;;
22829;SDS011;11581;51.250;6.778;2023-03-01T09:35:15;7.20;;;4.05;;
22829;SDS011;11581;51.250;6.778;2023-03-01T09:37:41;7.13;;;4.38;;
22829;SDS011;11581;51.250;6.778;2023-03-01T09:40:12;8.60;;;4.88;;
22829;SDS011;11581;51.250;6.778;2023-03-01T09:42:45;8.10;;;4.93;;
22829;SDS011;11581;51.250;6.778;2023-03-01T09:45:18;7.20;;;4.22;;
22829;SDS011;11581;51.250;6.778;2023-03-01T09:47:54;7.53;;;4.78;;
22829;SDS011;11581;51.250;6.778;2023-03-01T09:50:22;7.95;;;3.95;;
22829;SDS011;11581;51.250;6.778;2023-03-01T09:52:50;8.27;;;5.03;;
22829;SDS011;11581;51.250;6.778;2023-03-01T09:55:26;7.35;;;3.88;;
22829;SDS011;11581;51.250;6.778;2023-03-01T09:57:58;7.95;;;4.57;;
22829;SDS011;11581;51.250;6.778;2023-03-01T10:00:33;8.20;;;4.85;;
22829;SDS011;11581;51.250;6.778;2023-03-01T10:03:11;8.02;;;4.50;;
22829;SDS011;11581;51.250;6.778;2023-03-01T10:05:44;8.65;;;4.68;;
22829;SDS011;11581;51.250;6.778;2023-03-01T10:08:29;6.55;;;4.50;;
22829;SDS011;11581;51.250;6.778;2023-03-01T10:11:01;8.70;;;4.63;;
22829;SDS011;11581;51.250;6.778;2023-03-01T10:13:31;7.05;;;4.53;;
22829;SDS011;11581;51.250;6.778;2023-03-01T10:16:15;7.43;;;4.60;;
22829;SDS011;11581;51.250;6.778;2023-03-01T10:18:48;7.38;;;4.60;;
22829;SDS011;11581;51.250;6.778;2023-03-01T10:21:19;8.70;;;4.53;;
22829;SDS011;11581;51.250;6.778;2023-03-01T10:23:46;8.80;;;4.72;;
22829;SDS011;11581;51.250;6.778;2023-03-01T10:26:23;7.00;;;5.00;;
22829;SDS011;11581;51.250;6.778;2023-03-01T10:29:03;17.00;;;5.38;;
22829;SDS011;11581;51.250;6.778;2023-03-01T10:31:36;10.13;;;4.97;;
22829;SDS011;11581;51.250;6.778;2023-03-01T10:34:11;9.05;;;4.60;;
22829;SDS011;11581;51.250;6.778;2023-03-01T10:36:39;6.05;;;4.22;;
22829;SDS011;11581;51.250;6.778;2023-03-01T10:39:12;10.13;;;5.45;;
22829;SDS011;11581;51.250;6.778;2023-03-01T10:41:49;7.30;;;5.03;;
22829;SDS011;11581;51.250;6.778;2023-03-01T10:44:35;10.65;;;4.70;;
22829;SDS011;11581;51.250;6.778;2023-03-01T10:47:12;13.52;;;7.75;;
22829;SDS011;11581;51.250;6.778;2023-03-01T10:49:57;11.82;;;6.55;;
22829;SDS011;11581;51.250;6.778;2023-03-01T10:52:27;8.02;;;4.97;;
22829;SDS011;11581;51.250;6.778;2023-03-01T10:54:56;7.88;;;4.78;;
22829;SDS011;11581;51.250;6.778;2023-03-01T10:57:27;6.55;;;4.35;;
22829;SDS011;11581;51.250;6.778;2023-03-01T11:02:49;16.40;;;8.20;;
22829;SDS011;11581;51.250;6.778;2023-03-01T11:05:20;9.57;;;5.68;;
22829;SDS011;11581;51.250;6.778;2023-03-01T11:07:50;7.30;;;4.88;;
22829;SDS011;11581;51.250;6.778;2023-03-01T11:10:19;7.88;;;4.93;;
22829;SDS011;11581;51.250;6.778;2023-03-01T11:12:47;9.13;;;5.00;;
22829;SDS011;11581;51.250;6.778;2023-03-01T11:15:25;23.67;;;11.40;;
22829;SDS011;11581;51.250;6.778;2023-03-01T11:17:53;14.27;;;8.50;;
22829;SDS011;11581;51.250;6.778;2023-03-01T11:20:26;7.95;;;5.63;;
22829;SDS011;11581;51.250;6.778;2023-03-01T11:22:57;9.40;;;5.18;;
22829;SDS011;11581;51.250;6.778;2023-03-01T11:25:29;6.72;;;4.75;;
22829;SDS011;11581;51.250;6.778;2023-03-01T11:28:01;8.17;;;5.33;;
22829;SDS011;11581;51.250;6.778;2023-03-01T11:30:31;9.13;;;5.28;;
22829;SDS011;11581;51.250;6.778;2023-03-01T11:33:03;7.38;;;4.57;;
22829;SDS011;11581;51.250;6.778;2023-03-01T11:35:42;6.85;;;4.55;;
22829;SDS011;11581;51.250;6.778;2023-03-01T11:40:44;7.47;;;4.32;;
22829;SDS011;11581;51.250;6.778;2023-03-01T11:43:18;8.43;;;4.35;;
22829;SDS011;11581;51.250;6.778;2023-03-01T11:45:58;6.10;;;3.80;;
22829;SDS011;11581;51.250;6.778;2023-03-01T11:48:46;7.25;;;3.85;;
22829;SDS011;11581;51.250;6.778;2023-03-01T11:51:23;5.68;;;3.22;;
22829;SDS011;11581;51.250;6.778;2023-03-01T11:54:04;6.47;;;3.90;;
22829;SDS011;11581;51.250;6.778;2023-03-01T11:56:38;7.07;;;3.83;;
22829;SDS011;11581;51.250;6.778;2023-03-01T11:59:17;6.05;;;3.72;;
22829;SDS011;11581;51.250;6.778;2023-03-01T12:01:58;7.15;;;3.72;;
22829;SDS011;11581;51.250;6.778;2023-03-01T12:04:57;16.75;;;8.23;;
22829;SDS011;11581;51.250;6.778;2023-03-01T12:07:39;6.63;;;4.43;;
22829;SDS011;11581;51.250;6.778;2023-03-01T12:10:22;6.10;;;4.07;;
22829;SDS011;11581;51.250;6.778;2023-03-01T12:12:58;5.10;;;3.90;;
22829;SDS011;11581;51.250;6.778;2023-03-01T12:15:40;4.63;;;2.85;;
22829;SDS011;11581;51.250;6.778;2023-03-01T12:18:30;10.20;;;3.53;;
22829;SDS011;11581;51.250;6.778;2023-03-01T12:21:14;4.78;;;3.20;;
22829;SDS011;11581;51.250;6.778;2023-03-01T12:24:06;6.00;;;3.20;;
22829;SDS011;11581;51.250;6.778;2023-03-01T12:26:41;7.45;;;4.10;;
22829;SDS011;11581;51.250;6.778;2023-03-01T12:29:21;5.63;;;3.25;;
22829;SDS011;11581;51.250;6.778;2023-03-01T12:32:08;6.25;;;3.50;;
22829;SDS011;11581;51.250;6.778;2023-03-01T12:34:55;6.25;;;2.92;;
22829;SDS011;11581;51.250;6.778;2023-03-01T12:37:41;7.13;;;3.80;;
22829;SDS011;11581;51.250;6.778;2023-03-01T12:40:26;7.13;;;3.50;;
22829;SDS011;11581;51.250;6.778;2023-03-01T12:43:07;4.70;;;3.22;;
22829;SDS011;11581;51.250;6.778;2023-03-01T12:45:49;5.60;;;3.55;;
22829;SDS011;11581;51.250;6.778;2023-03-01T12:48:25;4.80;;;3.10;;
22829;SDS011;11581;51.250;6.778;2023-03-01T12:51:01;6.70;;;3.55;;
22829;SDS011;11581;51.250;6.778;2023-03-01T12:53:34;8.20;;;3.80;;
22829;SDS011;11581;51.250;6.778;2023-03-01T12:56:07;5.25;;;3.15;;
22829;SDS011;11581;51.250;6.778;2023-03-01T12:58:39;6.15;;;3.38;;
22829;SDS011;11581;51.250;6.778;2023-03-01T13:01:22;5.93;;;2.83;;
22829;SDS011;11581;51.250;6.778;2023-03-01T13:06:50;4.85;;;3.25;;
22829;SDS011;11581;51.250;6.778;2023-03-01T13:09:27;6.32;;;3.13;;
22829;SDS011;11581;51.250;6.778;2023-03-01T13:12:02;6.18;;;3.35;;
22829;SDS011;11581;51.250;6.778;2023-03-01T13:14:36;7.60;;;3.63;;
22829;SDS011;11581;51.250;6.778;2023-03-01T13:19:56;5.70;;;3.28;;
22829;SDS011;11581;51.250;6.778;2023-03-01T13:22:28;4.95;;;3.40;;
22829;SDS011;11581;51.250;6.778;2023-03-01T13:27:29;6.68;;;3.35;;
22829;SDS011;11581;51.250;6.778;2023-03-01T13:29:57;6.68;;;3.97;;
22829;SDS011;11581;51.250;6.778;2023-03-01T13:32:29;8.10;;;3.50;;
22829;SDS011;11581;51.250;6.778;2023-03-01T13:34:58;6.65;;;3.33;;
22829;SDS011;11581;51.250;6.778;2023-03-01T13:37:26;5.95;;;3.67;;
22829;SDS011;11581;51.250;6.778;2023-03-01T13:39:59;5.65;;;3.30;;
22829;SDS011;11581;51.250;6.778;2023-03-01T13:42:35;7.22;;;3.60;;
22829;SDS011;11581;51.250;6.778;2023-03-01T13:45:21;7.05;;;3.38;;
22829;SDS011;11581;51.250;6.778;2023-03-01T13:47:56;8.83;;;4.20;;
22829;SDS011;11581;51.250;6.778;2023-03-01T13:50:25;5.88;;;3.45;;
22829;SDS011;11581;51.250;6.778;2023-03-01T13:52:55;5.75;;;3.67;;
22829;SDS011;11581;51.250;6.778;2023-03-01T13:55:27;5.72;;;3.30;;
22829;SDS011;11581;51.250;6.778;2023-03-01T13:58:03;6.30;;;3.33;;
22829;SDS011;11581;51.250;6.778;2023-03-01T14:00:39;5.63;;;3.30;;
22829;SDS011;11581;51.250;6.778;2023-03-01T14:03:10;5.63;;;3.20;;
22829;SDS011;11581;51.250;6.778;2023-03-01T14:05:40;8.10;;;3.75;;
22829;SDS011;11581;51.250;6.778;2023-03-01T14:08:18;6.72;;;3.78;;
22829;SDS011;11581;51.250;6.778;2023-03-01T14:10:54;4.88;;;3.10;;
22829;SDS011;11581;51.250;6.778;2023-03-01T14:13:41;5.93;;;3.83;;
22829;SDS011;11581;51.250;6.778;2023-03-01T14:16:23;5.68;;;3.33;;
22829;SDS011;11581;51.250;6.778;2023-03-01T14:19:00;7.68;;;4.05;;
22829;SDS011;11581;51.250;6.778;2023-03-01T14:21:36;8.70;;;4.10;;
22829;SDS011;11581;51.250;6.778;2023-03-01T14:24:03;7.95;;;4.25;;
22829;SDS011;11581;51.250;6.778;2023-03-01T14:26:37;6.90;;;3.70;;
22829;SDS011;11581;51.250;6.778;2023-03-01T14:29:05;6.82;;;3.83;;
22829;SDS011;11581;51.250;6.778;2023-03-01T14:31:32;9.32;;;3.70;;
22829;SDS011;11581;51.250;6.778;2023-03-01T14:34:02;5.28;;;3.60;;
22829;SDS011;11581;51.250;6.778;2023-03-01T14:36:31;6.40;;;3.55;;
22829;SDS011;11581;51.250;6.778;2023-03-01T14:39:00;9.38;;;4.15;;
22829;SDS011;11581;51.250;6.778;2023-03-01T14:41:30;7.70;;;3.72;;
22829;SDS011;11581;51.250;6.778;2023-03-01T14:43:59;6.85;;;4.10;;
22829;SDS011;11581;51.250;6.778;2023-03-01T14:46:30;4.97;;;3.30;;
22829;SDS011;11581;51.250;6.778;2023-03-01T14:49:01;6.53;;;3.20;;
22829;SDS011;11581;51.250;6.778;2023-03-01T14:51:29;7.00;;;4.10;;
22829;SDS011;11581;51.250;6.778;2023-03-01T14:53:56;5.85;;;3.67;;
22829;SDS011;11581;51.250;6.778;2023-03-01T14:56:23;6.65;;;3.67;;
22829;SDS011;11581;51.250;6.778;2023-03-01T14:58:53;6.30;;;3.53;;
22829;SDS011;11581;51.250;6.778;2023-03-01T15:01:23;6.15;;;3.35;;
22829;SDS011;11581;51.250;6.778;2023-03-01T15:03:51;5.75;;;3.40;;
22829;SDS011;11581;51.250;6.778;2023-03-01T15:06:19;6.35;;;3.50;;
22829;SDS011;11581;51.250;6.778;2023-03-01T15:08:48;6.32;;;3.30;;
22829;SDS011;11581;51.250;6.778;2023-03-01T15:11:18;7.03;;;3.63;;
22829;SDS011;11581;51.250;6.778;2023-03-01T15:13:49;7.47;;;3.85;;
22829;SDS011;11581;51.250;6.778;2023-03-01T15:16:17;6.82;;;3.42;;
22829;SDS011;11581;51.250;6.778;2023-03-01T15:18:46;6.43;;;3.60;;
22829;SDS011;11581;51.250;6.778;2023-03-01T15:21:17;6.88;;;4.00;;
22829;SDS011;11581;51.250;6.778;2023-03-01T15:23:48;8.02;;;4.53;;
22829;SDS011;11581;51.250;6.778;2023-03-01T15:26:24;6.70;;;3.75;;